sensor_id;sensor_type;location;lat;lon;timestamp;pressure;altitude;pressure_sealevel;temperature;humidity
12913;BME280;6524;51.368;11.984;2022-09-25T04:01:19;99945.84;;;12.52;99.21
12913;BME280;6524;51.368;11.984;2022-09-25T04:06:23;99944.28;;;12.67;98.55
12913;BME280;6524;51.368;11.984;2022-09-25T04:11:24;99950.34;;;12.67;98.61
12913;BME280;6524;51.368;11.984;2022-09-25T04:16:24;99937.03;;;12.72;98.31
12913;BME280;6524;51.368;11.984;2022-09-25T04:21:25;99948.28;;;12.74;99.01
12913;BME280;6524;51.368;11.984;2022-09-25T04:26:25;99936.38;;;12.86;98.16
12913;BME280;6524;51.368;11.984;2022-09-25T04:31:27;99940.84;;;13.01;97.24
12913;BME280;6524;51.368;11.984;2022-09-25T04:36:27;99940.06;;;12.99;97.67
12913;BME280;6524;51.368;11.984;2022-09-25T04:41:28;99929.28;;;13.05;97.47
12913;BME280;6524;51.368;11.984;2022-09-25T04:46:28;99931.28;;;13.00;98.23
12913;BME280;6524;51.368;11.984;2022-09-25T04:51:28;99934.53;;;13.05;98.34
12913;BME280;6524;51.368;11.984;2022-09-25T04:56:29;99939.63;;;13.08;97.88
12913;BME280;6524;51.368;11.984;2022-09-25T05:01:29;99948.41;;;13.07;98.06
12913;BME280;6524;51.368;11.984;2022-09-25T05:06:29;99946.84;;;13.03;97.89
12913;BME280;6524;51.368;11.984;2022-09-25T05:11:29;99939.91;;;13.02;97.84
12913;BME280;6524;51.368;11.984;2022-09-25T05:16:30;99941.84;;;13.16;97.06
12913;BME280;6524;51.368;11.984;2022-09-25T05:21:30;99937.16;;;13.23;96.90
12913;BME280;6524;51.368;11.984;2022-09-25T05:26:31;99943.97;;;13.27;96.89
12913;BME280;6524;51.368;11.984;2022-09-25T05:31:33;99953.81;;;13.39;97.13
12913;BME280;6524;51.368;11.984;2022-09-25T05:36:33;99957.13;;;13.25;96.56
12913;BME280;6524;51.368;11.984;2022-09-25T05:41:34;99952.88;;;13.40;96.43
12913;BME280;6524;51.368;11.984;2022-09-25T05:46:35;99951.31;;;13.53;95.12
12913;BME280;6524;51.368;11.984;2022-09-25T05:51:35;99951.94;;;13.58;94.63
12913;BME280;6524;51.368;11.984;2022-09-25T05:56:36;99949.31;;;13.58;95.19
12913;BME280;6524;51.368;11.984;2022-09-25T06:01:39;99951.38;;;13.69;95.61
12913;BME280;6524;51.368;11.984;2022-09-25T06:06:40;99950.03;;;13.78;95.01
12913;BME280;6524;51.368;11.984;2022-09-25T06:11:40;99955.75;;;13.69;95.81
12913;BME280;6524;51.368;11.984;2022-09-25T06:16:43;99951.47;;;13.68;95.77
12913;BME280;6524;51.368;11.984;2022-09-25T06:21:46;99957.94;;;13.94;94.79
12913;BME280;6524;51.368;11.984;2022-09-25T06:26:46;99963.69;;;14.00;94.18
12913;BME280;6524;51.368;11.984;2022-09-25T06:31:46;99959.56;;;13.96;94.24
12913;BME280;6524;51.368;11.984;2022-09-25T06:36:47;99960.50;;;13.95;95.33
12913;BME280;6524;51.368;11.984;2022-09-25T06:41:51;99965.50;;;14.16;93.48
12913;BME280;6524;51.368;11.984;2022-09-25T06:46:51;99975.66;;;14.22;94.10
12913;BME280;6524;51.368;11.984;2022-09-25T06:51:53;99976.50;;;14.38;93.03
12913;BME280;6524;51.368;11.984;2022-09-25T06:56:53;99974.31;;;14.46;93.03
12913;BME280;6524;51.368;11.984;2022-09-25T07:02:02;99980.41;;;14.47;92.65
12913;BME280;6524;51.368;11.984;2022-09-25T07:13:07;99963.66;;;14.81;91.81
12913;BME280;6524;51.368;11.984;2022-09-25T07:18:07;99962.06;;;15.09;90.76
12913;BME280;6524;51.368;11.984;2022-09-25T07:23:09;99963.66;;;15.41;89.21
12913;BME280;6524;51.368;11.984;2022-09-25T07:28:10;99962.38;;;15.63;88.25
12913;BME280;6524;51.368;11.984;2022-09-25T07:33:13;99960.34;;;15.82;86.70
12913;BME280;6524;51.368;11.984;2022-09-25T07:38:13;99965.00;;;16.20;84.02
12913;BME280;6524;51.368;11.984;2022-09-25T07:43:14;99967.16;;;16.83;80.85
12913;BME280;6524;51.368;11.984;2022-09-25T07:48:14;99970.88;;;16.94;81.04
12913;BME280;6524;51.368;11.984;2022-09-25T07:53:16;99960.13;;;17.62;78.54
12913;BME280;6524;51.368;11.984;2022-09-25T07:58:17;99964.53;;;20.69;66.09
12913;BME280;6524;51.368;11.984;2022-09-25T08:03:19;99969.78;;;21.13;61.60
12913;BME280;6524;51.368;11.984;2022-09-25T08:08:19;99958.25;;;21.86;60.90
12913;BME280;6524;51.368;11.984;2022-09-25T08:13:20;99962.53;;;23.65;55.93
12913;BME280;6524;51.368;11.984;2022-09-25T08:18:21;99971.81;;;25.35;50.80
12913;BME280;6524;51.368;11.984;2022-09-25T08:23:22;99982.75;;;25.24;49.71
12913;BME280;6524;51.368;11.984;2022-09-25T08:28:22;99965.78;;;24.61;51.05
12913;BME280;6524;51.368;11.984;2022-09-25T08:33:23;99962.44;;;24.59;51.18
12913;BME280;6524;51.368;11.984;2022-09-25T08:38:25;99969.56;;;24.86;50.76
12913;BME280;6524;51.368;11.984;2022-09-25T08:43:27;99964.72;;;24.54;50.47
12913;BME280;6524;51.368;11.984;2022-09-25T08:48:33;99951.59;;;23.68;53.04
12913;BME280;6524;51.368;11.984;2022-09-25T08:53:53;99944.72;;;23.66;53.76
12913;BME280;6524;51.368;11.984;2022-09-25T08:59:03;99948.72;;;22.55;56.55
12913;BME280;6524;51.368;11.984;2022-09-25T09:04:14;99952.66;;;21.17;59.81
12913;BME280;6524;51.368;11.984;2022-09-25T09:09:28;99952.25;;;20.68;62.65
12913;BME280;6524;51.368;11.984;2022-09-25T09:14:37;99952.91;;;20.27;63.54
12913;BME280;6524;51.368;11.984;2022-09-25T09:19:39;99949.44;;;20.15;64.27
12913;BME280;6524;51.368;11.984;2022-09-25T09:25:32;99947.31;;;20.75;62.78
12913;BME280;6524;51.368;11.984;2022-09-25T09:41:20;99951.06;;;22.38;56.75
12913;BME280;6524;51.368;11.984;2022-09-25T09:52:08;99940.91;;;23.88;53.91
12913;BME280;6524;51.368;11.984;2022-09-25T09:57:25;99939.22;;;24.52;51.83
12913;BME280;6524;51.368;11.984;2022-09-25T10:02:35;99934.25;;;24.75;50.80
12913;BME280;6524;51.368;11.984;2022-09-25T10:07:42;99925.72;;;25.25;48.83
12913;BME280;6524;51.368;11.984;2022-09-25T10:12:45;99921.16;;;24.99;49.26
12913;BME280;6524;51.368;11.984;2022-09-25T10:17:52;99916.69;;;25.26;47.25
12913;BME280;6524;51.368;11.984;2022-09-25T10:22:53;99910.56;;;26.28;46.06
12913;BME280;6524;51.368;11.984;2022-09-25T10:27:55;99920.06;;;29.11;40.84
12913;BME280;6524;51.368;11.984;2022-09-25T10:33:06;99913.72;;;30.15;37.54
12913;BME280;6524;51.368;11.984;2022-09-25T10:43:33;99906.75;;;31.85;34.73
12913;BME280;6524;51.368;11.984;2022-09-25T10:48:36;99917.91;;;32.16;33.70
12913;BME280;6524;51.368;11.984;2022-09-25T10:54:15;99907.28;;;31.73;34.02
12913;BME280;6524;51.368;11.984;2022-09-25T10:59:18;99906.41;;;31.60;33.82
12913;BME280;6524;51.368;11.984;2022-09-25T11:04:28;99904.84;;;31.16;35.07
12913;BME280;6524;51.368;11.984;2022-09-25T11:09:30;99901.25;;;31.71;34.23
12913;BME280;6524;51.368;11.984;2022-09-25T11:14:34;99889.94;;;31.20;34.04
12913;BME280;6524;51.368;11.984;2022-09-25T11:19:37;99880.63;;;27.72;40.87
12913;BME280;6524;51.368;11.984;2022-09-25T11:24:46;99881.41;;;26.00;45.64
12913;BME280;6524;51.368;11.984;2022-09-25T11:30:01;99883.78;;;27.83;41.21
12913;BME280;6524;51.368;11.984;2022-09-25T11:46:03;99875.28;;;29.41;36.50
12913;BME280;6524;51.368;11.984;2022-09-25T11:51:24;99872.59;;;30.00;36.00
12913;BME280;6524;51.368;11.984;2022-09-25T12:02:00;99867.97;;;29.94;35.42
12913;BME280;6524;51.368;11.984;2022-09-25T12:13:08;99853.69;;;27.65;40.55
12913;BME280;6524;51.368;11.984;2022-09-25T12:23:26;99836.78;;;28.96;38.14
12913;BME280;6524;51.368;11.984;2022-09-25T12:39:26;99828.34;;;28.15;38.16
12913;BME280;6524;51.368;11.984;2022-09-25T12:44:43;99821.00;;;27.69;38.26
12913;BME280;6524;51.368;11.984;2022-09-25T12:49:59;99819.53;;;27.98;38.46
12913;BME280;6524;51.368;11.984;2022-09-25T12:55:10;99812.00;;;28.02;38.32
12913;BME280;6524;51.368;11.984;2022-09-25T13:00:27;99809.25;;;26.00;42.81
12913;BME280;6524;51.368;11.984;2022-09-25T13:05:42;99807.25;;;25.94;44.49
12913;BME280;6524;51.368;11.984;2022-09-25T13:10:51;99797.66;;;26.50;43.74
12913;BME280;6524;51.368;11.984;2022-09-25T13:15:59;99799.69;;;25.39;44.98
12913;BME280;6524;51.368;11.984;2022-09-25T13:21:28;99801.13;;;24.55;46.43
12913;BME280;6524;51.368;11.984;2022-09-25T13:26:30;99797.41;;;24.92;46.21
12913;BME280;6524;51.368;11.984;2022-09-25T13:31:36;99793.13;;;25.68;44.51
12913;BME280;6524;51.368;11.984;2022-09-25T13:36:50;99789.91;;;25.22;44.69
12913;BME280;6524;51.368;11.984;2022-09-25T13:42:02;99784.88;;;24.13;45.99
12913;BME280;6524;51.368;11.984;2022-09-25T13:52:50;99772.50;;;24.57;44.94
12913;BME280;6524;51.368;11.984;2022-09-25T14:03:42;99764.53;;;23.48;49.86
12913;BME280;6524;51.368;11.984;2022-09-25T14:08:46;99758.31;;;24.39;47.35
12913;BME280;6524;51.368;11.984;2022-09-25T14:13:50;99753.88;;;24.65;47.17
12913;BME280;6524;51.368;11.984;2022-09-25T14:18:57;99764.34;;;24.05;49.51
12913;BME280;6524;51.368;11.984;2022-09-25T14:24:20;99759.56;;;23.36;50.70
12913;BME280;6524;51.368;11.984;2022-09-25T14:29:24;99747.16;;;22.70;53.35
12913;BME280;6524;51.368;11.984;2022-09-25T14:34:45;99738.78;;;22.55;53.26
12913;BME280;6524;51.368;11.984;2022-09-25T14:40:21;99738.88;;;22.82;52.87
12913;BME280;6524;51.368;11.984;2022-09-25T14:51:09;99739.22;;;23.62;51.13
12913;BME280;6524;51.368;11.984;2022-09-25T14:56:13;99747.34;;;23.43;52.11
12913;BME280;6524;51.368;11.984;2022-09-25T15:01:43;99735.09;;;22.85;53.49
12913;BME280;6524;51.368;11.984;2022-09-25T15:06:58;99739.22;;;22.40;54.72
12913;BME280;6524;51.368;11.984;2022-09-25T15:12:28;99739.94;;;22.04;56.27
12913;BME280;6524;51.368;11.984;2022-09-25T15:17:31;99738.50;;;21.90;56.67
12913;BME280;6524;51.368;11.984;2022-09-25T15:22:36;99739.19;;;21.32;58.21
12913;BME280;6524;51.368;11.984;2022-09-25T15:27:40;99742.91;;;20.89;58.94
12913;BME280;6524;51.368;11.984;2022-09-25T15:32:47;99741.66;;;20.63;60.50
12913;BME280;6524;51.368;11.984;2022-09-25T15:38:10;99745.78;;;20.55;60.78
12913;BME280;6524;51.368;11.984;2022-09-25T15:43:13;99738.34;;;20.28;61.39
12913;BME280;6524;51.368;11.984;2022-09-25T15:48:22;99739.84;;;20.10;62.16
12913;BME280;6524;51.368;11.984;2022-09-25T15:53:34;99744.66;;;19.84;62.83
12913;BME280;6524;51.368;11.984;2022-09-25T15:59:00;99732.88;;;19.77;62.95
12913;BME280;6524;51.368;11.984;2022-09-25T16:04:08;99746.25;;;19.53;63.72
12913;BME280;6524;51.368;11.984;2022-09-25T16:09:31;99744.69;;;19.39;64.64
12913;BME280;6524;51.368;11.984;2022-09-25T16:14:33;99752.72;;;18.92;65.69
12913;BME280;6524;51.368;11.984;2022-09-25T16:19:33;99740.84;;;18.98;65.70
12913;BME280;6524;51.368;11.984;2022-09-25T16:24:34;99754.31;;;18.95;66.06
12913;BME280;6524;51.368;11.984;2022-09-25T16:29:38;99748.53;;;18.79;66.75
12913;BME280;6524;51.368;11.984;2022-09-25T16:34:40;99740.06;;;18.62;67.20
12913;BME280;6524;51.368;11.984;2022-09-25T16:39:41;99749.91;;;18.49;67.72
12913;BME280;6524;51.368;11.984;2022-09-25T16:44:42;99752.25;;;18.41;67.80
12913;BME280;6524;51.368;11.984;2022-09-25T16:49:46;99762.81;;;18.41;68.44
12913;BME280;6524;51.368;11.984;2022-09-25T16:54:54;99753.19;;;18.29;68.06
12913;BME280;6524;51.368;11.984;2022-09-25T16:59:56;99754.81;;;18.18;68.18
12913;BME280;6524;51.368;11.984;2022-09-25T17:04:59;99752.28;;;18.17;68.46
12913;BME280;6524;51.368;11.984;2022-09-25T17:10:01;99743.75;;;18.13;67.61
12913;BME280;6524;51.368;11.984;2022-09-25T17:15:01;99740.59;;;18.08;67.34
12913;BME280;6524;51.368;11.984;2022-09-25T17:20:01;99733.13;;;17.91;67.79
12913;BME280;6524;51.368;11.984;2022-09-25T17:25:12;99739.91;;;17.82;67.72
12913;BME280;6524;51.368;11.984;2022-09-25T17:30:15;99730.41;;;17.79;68.05
12913;BME280;6524;51.368;11.984;2022-09-25T17:35:26;99737.06;;;17.72;68.13
12913;BME280;6524;51.368;11.984;2022-09-25T17:40:29;99737.81;;;17.74;68.67
12913;BME280;6524;51.368;11.984;2022-09-25T17:45:47;99734.41;;;17.72;68.55
12913;BME280;6524;51.368;11.984;2022-09-25T17:50:53;99733.50;;;17.61;68.79
12913;BME280;6524;51.368;11.984;2022-09-25T17:55:55;99743.16;;;17.49;69.52
12913;BME280;6524;51.368;11.984;2022-09-25T18:00:57;99744.25;;;17.33;70.27
12913;BME280;6524;51.368;11.984;2022-09-25T18:06:01;99746.16;;;17.19;71.39
12913;BME280;6524;51.368;11.984;2022-09-25T18:11:01;99748.47;;;17.23;71.15
12913;BME280;6524;51.368;11.984;2022-09-25T18:16:03;99753.00;;;17.21;70.79
12913;BME280;6524;51.368;11.984;2022-09-25T18:21:04;99765.66;;;17.16;71.26
12913;BME280;6524;51.368;11.984;2022-09-25T18:26:22;99759.22;;;17.20;71.70
12913;BME280;6524;51.368;11.984;2022-09-25T18:31:23;99759.63;;;17.14;72.27
12913;BME280;6524;51.368;11.984;2022-09-25T18:36:24;99757.97;;;17.13;73.21
12913;BME280;6524;51.368;11.984;2022-09-25T18:41:24;99766.63;;;16.90;73.11
12913;BME280;6524;51.368;11.984;2022-09-25T18:46:26;99762.72;;;16.82;73.51
12913;BME280;6524;51.368;11.984;2022-09-25T18:51:27;99762.94;;;17.05;73.11
12913;BME280;6524;51.368;11.984;2022-09-25T18:56:27;99764.50;;;16.95;73.78
12913;BME280;6524;51.368;11.984;2022-09-25T19:01:27;99762.50;;;16.85;74.27
12913;BME280;6524;51.368;11.984;2022-09-25T19:06:28;99768.31;;;16.78;74.06
12913;BME280;6524;51.368;11.984;2022-09-25T19:11:28;99760.03;;;16.70;74.45
12913;BME280;6524;51.368;11.984;2022-09-25T19:16:29;99762.78;;;16.68;75.19
12913;BME280;6524;51.368;11.984;2022-09-25T19:21:30;99765.50;;;16.66;74.84
12913;BME280;6524;51.368;11.984;2022-09-25T19:26:32;99764.69;;;16.66;74.80
12913;BME280;6524;51.368;11.984;2022-09-25T19:31:32;99757.19;;;16.60;74.66
12913;BME280;6524;51.368;11.984;2022-09-25T19:36:33;99758.16;;;16.72;74.80
12913;BME280;6524;51.368;11.984;2022-09-25T19:41:35;99757.03;;;16.76;74.50
12913;BME280;6524;51.368;11.984;2022-09-25T19:46:36;99753.72;;;16.72;74.28
12913;BME280;6524;51.368;11.984;2022-09-25T19:51:37;99752.47;;;16.65;75.49
12913;BME280;6524;51.368;11.984;2022-09-25T19:56:38;99753.50;;;16.50;76.00
12913;BME280;6524;51.368;11.984;2022-09-25T20:01:40;99763.47;;;16.45;76.92
12913;BME280;6524;51.368;11.984;2022-09-25T20:06:41;99753.19;;;16.54;76.52
12913;BME280;6524;51.368;11.984;2022-09-25T20:11:42;99757.91;;;16.36;77.79
12913;BME280;6524;51.368;11.984;2022-09-25T20:16:42;99753.66;;;16.21;78.28
12913;BME280;6524;51.368;11.984;2022-09-25T20:21:43;99762.47;;;16.20;78.31
12913;BME280;6524;51.368;11.984;2022-09-25T20:26:43;99751.56;;;16.26;78.18
12913;BME280;6524;51.368;11.984;2022-09-25T20:31:44;99756.53;;;16.04;78.72
12913;BME280;6524;51.368;11.984;2022-09-25T20:36:45;99749.28;;;16.07;78.42
12913;BME280;6524;51.368;11.984;2022-09-25T20:41:46;99751.84;;;16.09;78.80
12913;BME280;6524;51.368;11.984;2022-09-25T20:46:47;99756.06;;;16.11;79.10
12913;BME280;6524;51.368;11.984;2022-09-25T20:51:47;99745.81;;;16.07;78.99
12913;BME280;6524;51.368;11.984;2022-09-25T20:56:47;99745.13;;;15.90;80.10
12913;BME280;6524;51.368;11.984;2022-09-25T21:01:48;99740.09;;;15.87;80.49
12913;BME280;6524;51.368;11.984;2022-09-25T21:06:48;99741.22;;;15.83;80.99
12913;BME280;6524;51.368;11.984;2022-09-25T21:11:49;99742.16;;;15.82;80.72
12913;BME280;6524;51.368;11.984;2022-09-25T21:16:50;99736.91;;;15.82;80.90
12913;BME280;6524;51.368;11.984;2022-09-25T21:21:50;99742.25;;;15.66;81.75
12913;BME280;6524;51.368;11.984;2022-09-25T21:26:51;99732.34;;;15.57;82.20
12913;BME280;6524;51.368;11.984;2022-09-25T21:31:51;99735.00;;;15.43;82.80
12913;BME280;6524;51.368;11.984;2022-09-25T21:36:53;99742.38;;;15.65;82.70
12913;BME280;6524;51.368;11.984;2022-09-25T21:41:54;99729.44;;;15.62;82.26
12913;BME280;6524;51.368;11.984;2022-09-25T21:46:54;99726.03;;;15.60;81.82
12913;BME280;6524;51.368;11.984;2022-09-25T21:51:55;99720.25;;;15.69;81.76
12913;BME280;6524;51.368;11.984;2022-09-25T21:56:56;99715.25;;;15.64;81.58
12913;BME280;6524;51.368;11.984;2022-09-25T22:01:56;99715.53;;;15.60;82.16
12913;BME280;6524;51.368;11.984;2022-09-25T22:06:57;99715.72;;;15.57;82.27
12913;BME280;6524;51.368;11.984;2022-09-25T22:11:58;99710.41;;;15.44;83.95
12913;BME280;6524;51.368;11.984;2022-09-25T22:16:58;99716.31;;;15.47;84.63
12913;BME280;6524;51.368;11.984;2022-09-25T22:21:58;99710.81;;;15.38;87.52
12913;BME280;6524;51.368;11.984;2022-09-25T22:26:59;99705.75;;;15.35;90.51
12913;BME280;6524;51.368;11.984;2022-09-25T22:31:59;99703.97;;;15.35;90.11
12913;BME280;6524;51.368;11.984;2022-09-25T22:36:59;99696.66;;;15.26;91.04
12913;BME280;6524;51.368;11.984;2022-09-25T22:42:00;99696.31;;;15.18;91.98
12913;BME280;6524;51.368;11.984;2022-09-25T22:47:01;99695.75;;;15.13;92.70
12913;BME280;6524;51.368;11.984;2022-09-25T22:52:01;99684.72;;;15.08;93.36
12913;BME280;6524;51.368;11.984;2022-09-25T22:57:01;99685.53;;;15.08;93.18
